Alburtis, PA (18011)

9:41 PM EST en Noviembre 26, 2014 (GMT -0500)
Breinigsville / Lower Macungie | Change Station
CLOSE
Current Station
Estación meteorológica personal
Location: Mertztown, PA
Altura: 413 ft
Estaciones meteorológicas cercanas

Alt 413 ft 40.53 °N, 75.63 °W | Updated 51 seconds ago

Nublado
Nublado
33.7 ° F
Sensación térmica 34 ° F
N
0.0
Viento Variable Viento desde NNO
Gusts 0.0 mph

Hoy
Alta -- | Baja -- ° F
--% Posibilidad de precipitaciones
Ayer
Alta -- | Baja -- ° F
Precip. -- pul
7:01 AM 4:37 PM
Creciente, 25% visible
Presión 29.89 pul
Visibilidad 10.0 Millas
Nubes Nubes dispersas 5500 ft
Vientos helados 34 ° F
Punto de rocío 31 ° F
Humedad 90%
Precipitaciones 0.15 pul
Espesor de la nieve No disponible.
UV 0 de una escala de 12
Polen .10 de una escala de 12
Calidad del aire No disponible.
Flu Activity No disponible.
METAR KXLL 270235Z AUTO 34003KT 10SM SCT055 01/00 A2989 RMK AO2

More Conditions Fewer Conditions

Presión 29.89 pul
Visibilidad 10.0 Millas
Nubes Nubes dispersas 5500 ft
Vientos helados 34 ° F
Punto de rocío 31 ° F
Humedad 90%
Precipitaciones 0.15 pul
Espesor de la nieve No disponible.
UV 0 de una escala de 12
Polen .10 de una escala de 12
Calidad del aire No disponible.
Flu Activity No disponible.
METAR KXLL 270235Z AUTO 34003KT 10SM SCT055 01/00 A2989 RMK AO2

More Conditions Fewer Conditions

10-Day Weather Forecast

Almanac

Astronomía

Nov. 26, 2014 Salida Puesta
Hora real
Crepúsculo civil
Crepúsculo náutico
Crepúsculo astronómico
Luna
Horas de luz
Horas de luz
Tomorrow will be .
, % of the Moon is Illuminated

Extremos de hoy

Máximos del estado Bajos del estado

Community

WunderPhotos

Upload Photos

1,773,949 ¡fotos cargadas!

WunderBlogs® & News

Nearby

Calidad del aire

  Calidad del aire Índice AQ Contaminante
Not available.

Grosos de nieve

Estación Profundido Altura

Actividad de terremotos

Ciudad Distance Mag. Tiempo y dato
Magnitud mínima muestra es 2,5.

Temperaturas de aguas costeras

Lugar Temperatura

Estaciones meteorológicas cercanas